createdAt,value
2023-04-15T00:06:43.338Z,7.37
2023-04-15T00:35:35.914Z,7.57
2023-04-15T01:04:30.799Z,6.06
2023-04-15T01:33:13.621Z,6.31
2023-04-15T02:02:17.200Z,7.04
2023-04-15T02:31:16.928Z,6.88
2023-04-15T03:00:12.912Z,6.64
2023-04-15T03:29:03.017Z,6.63
2023-04-15T03:57:48.435Z,6.03
2023-04-15T04:26:48.828Z,6.59
2023-04-15T04:55:48.210Z,6.8
2023-04-15T05:25:06.818Z,8.16
2023-04-15T05:54:07.152Z,6.91
2023-04-15T06:23:09.240Z,7.29
2023-04-15T06:52:17.783Z,8.33
2023-04-15T07:21:37.220Z,9.13
2023-04-15T07:50:16.956Z,11.32
2023-04-15T08:19:49.863Z,14.03
2023-04-15T08:48:17.120Z,14.08
2023-04-15T09:17:29.101Z,15.86
2023-04-15T09:46:00.850Z,16.15
2023-04-15T10:15:15.921Z,16.67
2023-04-15T10:44:19.752Z,17.66
2023-04-15T11:13:13.831Z,18.88
2023-04-15T11:41:57.943Z,17.83
2023-04-15T12:11:10.485Z,18.3
2023-04-15T12:39:48.742Z,16.45
2023-04-15T13:09:06.243Z,17.7
2023-04-15T13:37:30.394Z,16.28
2023-04-15T14:06:29.031Z,17.01
2023-04-15T14:35:29.005Z,16.7
2023-04-15T15:04:28.883Z,16.84
2023-04-15T15:33:18.409Z,16.32
2023-04-15T16:02:19.061Z,16.48
2023-04-15T16:30:59.285Z,15.79
2023-04-15T16:59:59.453Z,14.04
2023-04-15T17:29:01.445Z,13.9
2023-04-15T17:58:04.864Z,13.42
2023-04-15T18:26:55.906Z,12
2023-04-15T18:55:49.959Z,11.13
2023-04-15T19:24:47.943Z,10.34
2023-04-15T19:53:43.606Z,9.96
2023-04-15T20:22:42.464Z,9.72
2023-04-15T20:51:43.032Z,9.53
2023-04-15T21:20:50.556Z,9.45
2023-04-15T21:49:59.590Z,9.72
2023-04-15T22:18:48.481Z,9.68
2023-04-15T22:47:56.011Z,9.75
2023-04-15T23:16:55.912Z,9.8
2023-04-15T23:45:41.820Z,9.69
